sensor_id;sensor_type;location;lat;lon;timestamp;P1;durP1;ratioP1;P2;durP2;ratioP2
59418;SDS011;45224;50.904;6.038;2023-04-24T00:01:12;10.67;;;4.50;;
59418;SDS011;45224;50.904;6.038;2023-04-24T00:02:43;8.73;;;3.50;;
59418;SDS011;45224;50.904;6.038;2023-04-24T00:04:17;11.20;;;4.15;;
59418;SDS011;45224;50.904;6.038;2023-04-24T00:05:48;9.07;;;3.70;;
59418;SDS011;45224;50.904;6.038;2023-04-24T00:07:18;8.23;;;3.90;;
59418;SDS011;45224;50.904;6.038;2023-04-24T00:08:50;8.75;;;3.95;;
59418;SDS011;45224;50.904;6.038;2023-04-24T00:10:20;9.40;;;4.27;;
59418;SDS011;45224;50.904;6.038;2023-04-24T00:11:51;9.38;;;4.32;;
59418;SDS011;45224;50.904;6.038;2023-04-24T00:14:53;12.05;;;4.40;;
59418;SDS011;45224;50.904;6.038;2023-04-24T00:16:23;8.13;;;4.17;;
59418;SDS011;45224;50.904;6.038;2023-04-24T00:17:54;10.53;;;4.20;;
59418;SDS011;45224;50.904;6.038;2023-04-24T00:19:24;17.42;;;6.22;;
59418;SDS011;45224;50.904;6.038;2023-04-24T00:20:55;11.07;;;5.17;;
59418;SDS011;45224;50.904;6.038;2023-04-24T00:22:25;12.87;;;5.40;;
59418;SDS011;45224;50.904;6.038;2023-04-24T00:25:27;11.73;;;5.73;;
59418;SDS011;45224;50.904;6.038;2023-04-24T00:26:58;10.97;;;5.50;;
59418;SDS011;45224;50.904;6.038;2023-04-24T00:28:29;13.98;;;6.18;;
59418;SDS011;45224;50.904;6.038;2023-04-24T00:31:31;15.00;;;6.63;;
59418;SDS011;45224;50.904;6.038;2023-04-24T00:33:01;14.35;;;6.28;;
59418;SDS011;45224;50.904;6.038;2023-04-24T00:34:33;13.57;;;6.28;;
59418;SDS011;45224;50.904;6.038;2023-04-24T00:36:03;13.10;;;6.27;;
59418;SDS011;45224;50.904;6.038;2023-04-24T00:37:34;12.13;;;6.70;;
59418;SDS011;45224;50.904;6.038;2023-04-24T00:39:04;15.45;;;7.22;;
59418;SDS011;45224;50.904;6.038;2023-04-24T00:40:35;11.67;;;6.87;;
59418;SDS011;45224;50.904;6.038;2023-04-24T00:42:05;14.77;;;7.40;;
59418;SDS011;45224;50.904;6.038;2023-04-24T00:43:36;16.25;;;7.45;;
59418;SDS011;45224;50.904;6.038;2023-04-24T00:45:07;18.45;;;7.10;;
59418;SDS011;45224;50.904;6.038;2023-04-24T00:46:38;17.50;;;7.20;;
59418;SDS011;45224;50.904;6.038;2023-04-24T00:48:08;19.73;;;8.13;;
59418;SDS011;45224;50.904;6.038;2023-04-24T00:49:39;18.35;;;7.78;;
59418;SDS011;45224;50.904;6.038;2023-04-24T00:51:10;16.83;;;8.10;;
59418;SDS011;45224;50.904;6.038;2023-04-24T00:52:40;22.03;;;8.63;;
59418;SDS011;45224;50.904;6.038;2023-04-24T00:54:11;17.90;;;9.23;;
59418;SDS011;45224;50.904;6.038;2023-04-24T00:57:13;22.92;;;8.45;;
59418;SDS011;45224;50.904;6.038;2023-04-24T00:58:47;19.35;;;9.20;;
59418;SDS011;45224;50.904;6.038;2023-04-24T01:00:18;18.30;;;9.33;;
59418;SDS011;45224;50.904;6.038;2023-04-24T01:01:49;23.13;;;10.27;;
59418;SDS011;45224;50.904;6.038;2023-04-24T01:03:20;23.08;;;9.48;;
59418;SDS011;45224;50.904;6.038;2023-04-24T01:04:52;23.40;;;10.95;;
59418;SDS011;45224;50.904;6.038;2023-04-24T01:06:23;23.67;;;10.87;;
59418;SDS011;45224;50.904;6.038;2023-04-24T01:07:58;17.95;;;9.30;;
59418;SDS011;45224;50.904;6.038;2023-04-24T01:09:29;21.08;;;10.13;;
59418;SDS011;45224;50.904;6.038;2023-04-24T01:11:01;19.95;;;9.68;;
59418;SDS011;45224;50.904;6.038;2023-04-24T01:12:34;20.65;;;10.07;;
59418;SDS011;45224;50.904;6.038;2023-04-24T01:14:04;24.67;;;11.15;;
59418;SDS011;45224;50.904;6.038;2023-04-24T01:15:36;24.20;;;10.68;;
59418;SDS011;45224;50.904;6.038;2023-04-24T01:17:06;21.83;;;10.47;;
59418;SDS011;45224;50.904;6.038;2023-04-24T01:18:37;24.15;;;11.18;;
59418;SDS011;45224;50.904;6.038;2023-04-24T01:20:08;27.80;;;11.48;;
59418;SDS011;45224;50.904;6.038;2023-04-24T01:21:39;20.23;;;9.80;;
59418;SDS011;45224;50.904;6.038;2023-04-24T01:23:10;21.40;;;10.63;;
59418;SDS011;45224;50.904;6.038;2023-04-24T01:24:41;25.07;;;10.97;;
59418;SDS011;45224;50.904;6.038;2023-04-24T01:26:13;22.48;;;11.20;;
59418;SDS011;45224;50.904;6.038;2023-04-24T01:27:46;22.98;;;10.98;;
59418;SDS011;45224;50.904;6.038;2023-04-24T01:29:17;21.43;;;10.90;;
59418;SDS011;45224;50.904;6.038;2023-04-24T01:30:47;28.37;;;11.10;;
59418;SDS011;45224;50.904;6.038;2023-04-24T01:32:18;27.13;;;11.38;;
59418;SDS011;45224;50.904;6.038;2023-04-24T01:33:50;27.17;;;11.52;;
59418;SDS011;45224;50.904;6.038;2023-04-24T01:35:21;23.50;;;10.93;;
59418;SDS011;45224;50.904;6.038;2023-04-24T01:36:52;20.08;;;10.65;;
59418;SDS011;45224;50.904;6.038;2023-04-24T01:38:23;26.35;;;11.27;;
59418;SDS011;45224;50.904;6.038;2023-04-24T01:39:54;24.67;;;11.77;;
59418;SDS011;45224;50.904;6.038;2023-04-24T01:41:24;28.80;;;12.33;;
59418;SDS011;45224;50.904;6.038;2023-04-24T01:42:55;24.52;;;11.15;;
59418;SDS011;45224;50.904;6.038;2023-04-24T01:44:27;24.58;;;11.88;;
59418;SDS011;45224;50.904;6.038;2023-04-24T01:45:58;26.42;;;11.35;;
59418;SDS011;45224;50.904;6.038;2023-04-24T01:47:28;21.03;;;10.50;;
59418;SDS011;45224;50.904;6.038;2023-04-24T01:49:01;24.95;;;11.52;;
59418;SDS011;45224;50.904;6.038;2023-04-24T01:50:32;23.73;;;11.10;;
59418;SDS011;45224;50.904;6.038;2023-04-24T01:52:02;25.20;;;12.10;;
59418;SDS011;45224;50.904;6.038;2023-04-24T01:53:34;23.65;;;11.57;;
59418;SDS011;45224;50.904;6.038;2023-04-24T01:55:06;23.88;;;10.73;;
59418;SDS011;45224;50.904;6.038;2023-04-24T01:56:40;26.15;;;11.25;;
59418;SDS011;45224;50.904;6.038;2023-04-24T01:58:15;23.10;;;11.95;;
59418;SDS011;45224;50.904;6.038;2023-04-24T01:59:45;20.63;;;10.60;;
59418;SDS011;45224;50.904;6.038;2023-04-24T02:01:19;17.97;;;10.63;;
59418;SDS011;45224;50.904;6.038;2023-04-24T02:02:51;21.15;;;10.73;;
59418;SDS011;45224;50.904;6.038;2023-04-24T02:04:22;26.30;;;10.87;;
59418;SDS011;45224;50.904;6.038;2023-04-24T02:05:52;21.37;;;9.90;;
59418;SDS011;45224;50.904;6.038;2023-04-24T02:07:23;24.70;;;11.23;;
59418;SDS011;45224;50.904;6.038;2023-04-24T02:08:53;24.03;;;11.47;;
59418;SDS011;45224;50.904;6.038;2023-04-24T02:10:24;27.30;;;11.60;;
59418;SDS011;45224;50.904;6.038;2023-04-24T02:11:55;26.42;;;11.48;;
59418;SDS011;45224;50.904;6.038;2023-04-24T02:13:28;24.10;;;11.25;;
59418;SDS011;45224;50.904;6.038;2023-04-24T02:14:58;21.23;;;11.85;;
59418;SDS011;45224;50.904;6.038;2023-04-24T02:16:29;24.97;;;12.13;;
59418;SDS011;45224;50.904;6.038;2023-04-24T02:18:03;25.00;;;11.95;;
59418;SDS011;45224;50.904;6.038;2023-04-24T02:19:35;27.63;;;11.52;;
59418;SDS011;45224;50.904;6.038;2023-04-24T02:21:06;27.30;;;12.27;;
59418;SDS011;45224;50.904;6.038;2023-04-24T02:22:36;26.13;;;12.03;;
59418;SDS011;45224;50.904;6.038;2023-04-24T02:24:07;21.43;;;11.67;;
59418;SDS011;45224;50.904;6.038;2023-04-24T02:25:37;25.30;;;11.60;;
59418;SDS011;45224;50.904;6.038;2023-04-24T02:27:08;25.27;;;12.07;;
59418;SDS011;45224;50.904;6.038;2023-04-24T02:28:38;36.03;;;13.03;;
59418;SDS011;45224;50.904;6.038;2023-04-24T02:30:09;24.50;;;11.60;;
59418;SDS011;45224;50.904;6.038;2023-04-24T02:31:40;27.42;;;12.95;;
59418;SDS011;45224;50.904;6.038;2023-04-24T02:33:11;37.13;;;14.37;;
59418;SDS011;45224;50.904;6.038;2023-04-24T02:34:41;26.27;;;12.23;;
59418;SDS011;45224;50.904;6.038;2023-04-24T02:36:12;28.50;;;12.53;;
59418;SDS011;45224;50.904;6.038;2023-04-24T02:37:43;26.95;;;12.20;;
59418;SDS011;45224;50.904;6.038;2023-04-24T02:39:16;23.90;;;11.65;;
59418;SDS011;45224;50.904;6.038;2023-04-24T02:40:46;21.50;;;11.30;;
59418;SDS011;45224;50.904;6.038;2023-04-24T02:42:17;21.80;;;10.93;;
59418;SDS011;45224;50.904;6.038;2023-04-24T02:43:47;28.80;;;12.63;;
59418;SDS011;45224;50.904;6.038;2023-04-24T02:45:18;22.70;;;12.03;;
59418;SDS011;45224;50.904;6.038;2023-04-24T02:46:48;25.27;;;12.87;;
59418;SDS011;45224;50.904;6.038;2023-04-24T02:48:20;22.77;;;12.02;;
59418;SDS011;45224;50.904;6.038;2023-04-24T02:49:51;29.83;;;12.37;;
59418;SDS011;45224;50.904;6.038;2023-04-24T02:51:21;22.70;;;11.53;;
59418;SDS011;45224;50.904;6.038;2023-04-24T02:52:52;23.43;;;11.53;;
59418;SDS011;45224;50.904;6.038;2023-04-24T02:54:22;26.50;;;11.87;;
59418;SDS011;45224;50.904;6.038;2023-04-24T02:55:52;27.47;;;12.73;;
59418;SDS011;45224;50.904;6.038;2023-04-24T02:57:25;24.85;;;11.35;;
59418;SDS011;45224;50.904;6.038;2023-04-24T02:58:56;28.23;;;12.37;;
59418;SDS011;45224;50.904;6.038;2023-04-24T03:00:26;25.10;;;12.57;;
59418;SDS011;45224;50.904;6.038;2023-04-24T03:01:57;25.93;;;12.20;;
59418;SDS011;45224;50.904;6.038;2023-04-24T03:03:27;29.97;;;11.77;;
59418;SDS011;45224;50.904;6.038;2023-04-24T03:04:58;28.23;;;13.40;;
59418;SDS011;45224;50.904;6.038;2023-04-24T03:06:28;28.33;;;13.63;;
59418;SDS011;45224;50.904;6.038;2023-04-24T03:08:01;26.30;;;12.68;;
59418;SDS011;45224;50.904;6.038;2023-04-24T03:09:31;28.27;;;13.70;;
59418;SDS011;45224;50.904;6.038;2023-04-24T03:11:02;24.50;;;12.33;;
59418;SDS011;45224;50.904;6.038;2023-04-24T03:12:32;32.17;;;13.83;;
59418;SDS011;45224;50.904;6.038;2023-04-24T03:14:03;35.00;;;14.57;;
59418;SDS011;45224;50.904;6.038;2023-04-24T03:15:33;29.93;;;12.47;;
59418;SDS011;45224;50.904;6.038;2023-04-24T03:17:04;28.33;;;13.37;;
59418;SDS011;45224;50.904;6.038;2023-04-24T03:18:34;28.13;;;12.87;;
59418;SDS011;45224;50.904;6.038;2023-04-24T03:20:05;26.40;;;13.03;;
59418;SDS011;45224;50.904;6.038;2023-04-24T03:21:36;29.15;;;13.35;;
59418;SDS011;45224;50.904;6.038;2023-04-24T03:23:10;26.35;;;12.27;;
59418;SDS011;45224;50.904;6.038;2023-04-24T03:24:42;28.83;;;12.88;;
59418;SDS011;45224;50.904;6.038;2023-04-24T03:26:13;28.42;;;12.80;;
59418;SDS011;45224;50.904;6.038;2023-04-24T03:27:54;25.13;;;12.48;;
59418;SDS011;45224;50.904;6.038;2023-04-24T03:29:46;28.13;;;13.02;;
59418;SDS011;45224;50.904;6.038;2023-04-24T03:31:18;24.60;;;11.93;;
59418;SDS011;45224;50.904;6.038;2023-04-24T03:32:49;26.10;;;12.13;;
59418;SDS011;45224;50.904;6.038;2023-04-24T03:34:25;29.60;;;12.68;;
59418;SDS011;45224;50.904;6.038;2023-04-24T03:35:55;29.30;;;12.47;;
59418;SDS011;45224;50.904;6.038;2023-04-24T03:37:26;29.75;;;12.10;;
59418;SDS011;45224;50.904;6.038;2023-04-24T03:39:07;27.52;;;11.95;;
59418;SDS011;45224;50.904;6.038;2023-04-24T03:40:39;27.10;;;12.10;;
59418;SDS011;45224;50.904;6.038;2023-04-24T03:42:19;25.27;;;11.48;;
59418;SDS011;45224;50.904;6.038;2023-04-24T03:43:55;28.15;;;11.77;;
59418;SDS011;45224;50.904;6.038;2023-04-24T03:45:26;24.63;;;11.95;;
59418;SDS011;45224;50.904;6.038;2023-04-24T03:46:57;29.47;;;12.03;;
59418;SDS011;45224;50.904;6.038;2023-04-24T03:48:29;24.58;;;12.02;;
59418;SDS011;45224;50.904;6.038;2023-04-24T03:49:59;26.40;;;11.68;;
59418;SDS011;45224;50.904;6.038;2023-04-24T03:51:30;24.08;;;12.05;;
59418;SDS011;45224;50.904;6.038;2023-04-24T03:53:08;24.63;;;11.85;;
59418;SDS011;45224;50.904;6.038;2023-04-24T03:54:43;23.85;;;11.63;;
59418;SDS011;45224;50.904;6.038;2023-04-24T03:56:15;24.33;;;12.20;;
59418;SDS011;45224;50.904;6.038;2023-04-24T03:57:45;25.73;;;11.90;;
59418;SDS011;45224;50.904;6.038;2023-04-24T03:59:23;26.40;;;12.43;;
59418;SDS011;45224;50.904;6.038;2023-04-24T04:01:08;23.60;;;12.75;;
59418;SDS011;45224;50.904;6.038;2023-04-24T04:02:47;28.38;;;11.93;;
59418;SDS011;45224;50.904;6.038;2023-04-24T04:04:18;27.97;;;12.37;;
59418;SDS011;45224;50.904;6.038;2023-04-24T04:05:49;22.67;;;10.85;;
59418;SDS011;45224;50.904;6.038;2023-04-24T04:07:19;33.30;;;13.63;;
59418;SDS011;45224;50.904;6.038;2023-04-24T04:08:50;26.88;;;12.02;;
59418;SDS011;45224;50.904;6.038;2023-04-24T04:10:21;22.97;;;10.63;;
59418;SDS011;45224;50.904;6.038;2023-04-24T04:11:51;27.47;;;11.70;;
59418;SDS011;45224;50.904;6.038;2023-04-24T04:13:22;24.70;;;11.43;;
59418;SDS011;45224;50.904;6.038;2023-04-24T04:14:53;25.65;;;11.52;;
59418;SDS011;45224;50.904;6.038;2023-04-24T04:17:59;21.00;;;11.77;;
59418;SDS011;45224;50.904;6.038;2023-04-24T04:19:30;32.85;;;13.20;;
59418;SDS011;45224;50.904;6.038;2023-04-24T04:21:01;24.20;;;12.63;;
59418;SDS011;45224;50.904;6.038;2023-04-24T04:22:32;22.85;;;12.57;;
59418;SDS011;45224;50.904;6.038;2023-04-24T04:24:04;23.92;;;11.73;;
59418;SDS011;45224;50.904;6.038;2023-04-24T04:25:40;31.65;;;12.95;;
59418;SDS011;45224;50.904;6.038;2023-04-24T04:27:11;28.27;;;12.33;;
59418;SDS011;45224;50.904;6.038;2023-04-24T04:29:03;25.50;;;12.07;;
59418;SDS011;45224;50.904;6.038;2023-04-24T04:30:34;26.35;;;12.63;;
59418;SDS011;45224;50.904;6.038;2023-04-24T04:32:07;23.88;;;11.38;;
59418;SDS011;45224;50.904;6.038;2023-04-24T04:33:38;25.58;;;11.88;;
59418;SDS011;45224;50.904;6.038;2023-04-24T04:35:10;31.65;;;12.00;;
59418;SDS011;45224;50.904;6.038;2023-04-24T04:36:41;27.43;;;12.27;;
59418;SDS011;45224;50.904;6.038;2023-04-24T04:38:36;26.95;;;11.38;;
59418;SDS011;45224;50.904;6.038;2023-04-24T04:40:17;28.08;;;12.63;;
59418;SDS011;45224;50.904;6.038;2023-04-24T04:41:55;31.27;;;11.85;;
59418;SDS011;45224;50.904;6.038;2023-04-24T04:43:30;23.30;;;11.23;;
59418;SDS011;45224;50.904;6.038;2023-04-24T04:45:01;20.58;;;11.30;;
59418;SDS011;45224;50.904;6.038;2023-04-24T04:46:43;26.60;;;12.52;;
59418;SDS011;45224;50.904;6.038;2023-04-24T04:48:25;23.23;;;11.88;;
59418;SDS011;45224;50.904;6.038;2023-04-24T04:49:56;24.45;;;11.57;;
59418;SDS011;45224;50.904;6.038;2023-04-24T04:51:30;26.77;;;12.40;;
59418;SDS011;45224;50.904;6.038;2023-04-24T04:53:01;27.33;;;13.05;;
59418;SDS011;45224;50.904;6.038;2023-04-24T04:54:37;26.88;;;11.77;;
59418;SDS011;45224;50.904;6.038;2023-04-24T04:56:08;25.57;;;11.07;;
59418;SDS011;45224;50.904;6.038;2023-04-24T04:57:43;32.22;;;11.25;;
59418;SDS011;45224;50.904;6.038;2023-04-24T04:59:15;21.17;;;10.70;;
59418;SDS011;45224;50.904;6.038;2023-04-24T05:00:46;22.45;;;11.27;;
59418;SDS011;45224;50.904;6.038;2023-04-24T05:02:36;23.17;;;10.85;;
59418;SDS011;45224;50.904;6.038;2023-04-24T05:04:07;27.95;;;11.00;;
59418;SDS011;45224;50.904;6.038;2023-04-24T05:05:37;24.27;;;10.93;;
59418;SDS011;45224;50.904;6.038;2023-04-24T05:07:12;23.55;;;10.43;;
59418;SDS011;45224;50.904;6.038;2023-04-24T05:08:48;23.45;;;10.98;;
59418;SDS011;45224;50.904;6.038;2023-04-24T05:10:31;19.02;;;10.45;;
59418;SDS011;45224;50.904;6.038;2023-04-24T05:12:02;20.93;;;10.50;;
59418;SDS011;45224;50.904;6.038;2023-04-24T05:13:36;21.58;;;10.77;;
59418;SDS011;45224;50.904;6.038;2023-04-24T05:15:10;28.92;;;10.38;;
59418;SDS011;45224;50.904;6.038;2023-04-24T05:16:40;23.08;;;10.27;;
59418;SDS011;45224;50.904;6.038;2023-04-24T05:18:13;25.42;;;10.35;;
59418;SDS011;45224;50.904;6.038;2023-04-24T05:19:44;23.13;;;10.43;;
59418;SDS011;45224;50.904;6.038;2023-04-24T05:21:15;24.70;;;11.95;;
59418;SDS011;45224;50.904;6.038;2023-04-24T05:22:49;24.58;;;10.27;;
59418;SDS011;45224;50.904;6.038;2023-04-24T05:24:21;24.92;;;10.25;;
59418;SDS011;45224;50.904;6.038;2023-04-24T05:26:10;24.92;;;9.85;;
59418;SDS011;45224;50.904;6.038;2023-04-24T05:27:40;21.27;;;9.53;;
59418;SDS011;45224;50.904;6.038;2023-04-24T05:29:18;24.40;;;9.43;;
59418;SDS011;45224;50.904;6.038;2023-04-24T05:30:49;19.88;;;9.15;;
59418;SDS011;45224;50.904;6.038;2023-04-24T05:32:21;20.75;;;9.85;;
59418;SDS011;45224;50.904;6.038;2023-04-24T05:33:51;18.97;;;9.43;;
59418;SDS011;45224;50.904;6.038;2023-04-24T05:35:21;23.83;;;9.33;;
59418;SDS011;45224;50.904;6.038;2023-04-24T05:36:52;19.60;;;9.17;;
59418;SDS011;45224;50.904;6.038;2023-04-24T05:39:54;22.33;;;9.68;;
59418;SDS011;45224;50.904;6.038;2023-04-24T05:41:24;21.10;;;9.70;;
59418;SDS011;45224;50.904;6.038;2023-04-24T05:42:55;24.63;;;9.70;;
59418;SDS011;45224;50.904;6.038;2023-04-24T05:44:28;22.25;;;9.18;;
59418;SDS011;45224;50.904;6.038;2023-04-24T05:45:58;19.47;;;9.27;;
59418;SDS011;45224;50.904;6.038;2023-04-24T05:47:29;19.87;;;8.80;;
59418;SDS011;45224;50.904;6.038;2023-04-24T05:48:59;18.77;;;8.97;;
59418;SDS011;45224;50.904;6.038;2023-04-24T05:50:30;17.10;;;8.20;;
59418;SDS011;45224;50.904;6.038;2023-04-24T05:52:01;16.50;;;8.43;;
59418;SDS011;45224;50.904;6.038;2023-04-24T05:53:33;15.07;;;7.78;;
59418;SDS011;45224;50.904;6.038;2023-04-24T05:55:03;19.97;;;8.33;;
59418;SDS011;45224;50.904;6.038;2023-04-24T05:56:37;15.48;;;6.90;;
59418;SDS011;45224;50.904;6.038;2023-04-24T05:58:09;16.20;;;7.50;;
59418;SDS011;45224;50.904;6.038;2023-04-24T05:59:41;16.95;;;7.60;;
59418;SDS011;45224;50.904;6.038;2023-04-24T06:01:12;15.33;;;6.67;;
59418;SDS011;45224;50.904;6.038;2023-04-24T06:02:45;14.45;;;7.13;;
59418;SDS011;45224;50.904;6.038;2023-04-24T06:04:17;16.25;;;7.38;;
59418;SDS011;45224;50.904;6.038;2023-04-24T06:05:49;15.80;;;6.83;;
59418;SDS011;45224;50.904;6.038;2023-04-24T06:07:25;14.43;;;7.05;;
59418;SDS011;45224;50.904;6.038;2023-04-24T06:08:59;16.85;;;7.43;;
59418;SDS011;45224;50.904;6.038;2023-04-24T06:10:30;12.15;;;6.53;;
59418;SDS011;45224;50.904;6.038;2023-04-24T06:12:01;14.13;;;6.93;;
59418;SDS011;45224;50.904;6.038;2023-04-24T06:13:42;17.48;;;7.10;;
59418;SDS011;45224;50.904;6.038;2023-04-24T06:15:48;17.23;;;6.95;;
59418;SDS011;45224;50.904;6.038;2023-04-24T06:17:29;18.43;;;7.37;;
59418;SDS011;45224;50.904;6.038;2023-04-24T06:19:00;20.45;;;7.85;;
59418;SDS011;45224;50.904;6.038;2023-04-24T06:20:31;18.45;;;8.52;;
59418;SDS011;45224;50.904;6.038;2023-04-24T06:22:02;18.90;;;8.47;;
59418;SDS011;45224;50.904;6.038;2023-04-24T06:23:32;19.60;;;8.63;;
59418;SDS011;45224;50.904;6.038;2023-04-24T06:25:03;19.67;;;8.63;;
59418;SDS011;45224;50.904;6.038;2023-04-24T06:26:34;16.10;;;8.43;;
59418;SDS011;45224;50.904;6.038;2023-04-24T06:28:05;16.17;;;8.40;;
59418;SDS011;45224;50.904;6.038;2023-04-24T06:29:36;17.70;;;7.60;;
59418;SDS011;45224;50.904;6.038;2023-04-24T06:31:07;17.90;;;8.00;;
59418;SDS011;45224;50.904;6.038;2023-04-24T06:32:37;14.97;;;6.93;;
59418;SDS011;45224;50.904;6.038;2023-04-24T06:34:07;22.00;;;7.83;;
59418;SDS011;45224;50.904;6.038;2023-04-24T06:35:38;15.90;;;7.50;;
59418;SDS011;45224;50.904;6.038;2023-04-24T06:37:08;14.80;;;6.00;;
59418;SDS011;45224;50.904;6.038;2023-04-24T06:38:39;12.97;;;6.47;;
59418;SDS011;45224;50.904;6.038;2023-04-24T06:40:10;12.68;;;5.80;;
59418;SDS011;45224;50.904;6.038;2023-04-24T06:41:40;10.38;;;5.70;;
59418;SDS011;45224;50.904;6.038;2023-04-24T06:43:19;12.10;;;5.68;;
59418;SDS011;45224;50.904;6.038;2023-04-24T06:44:50;11.43;;;5.50;;
59418;SDS011;45224;50.904;6.038;2023-04-24T06:46:21;9.47;;;5.40;;
59418;SDS011;45224;50.904;6.038;2023-04-24T06:47:53;12.43;;;5.40;;
59418;SDS011;45224;50.904;6.038;2023-04-24T06:49:24;12.43;;;5.70;;
59418;SDS011;45224;50.904;6.038;2023-04-24T06:50:55;13.50;;;5.30;;
59418;SDS011;45224;50.904;6.038;2023-04-24T06:52:25;13.40;;;5.23;;
59418;SDS011;45224;50.904;6.038;2023-04-24T06:53:56;13.47;;;5.47;;
59418;SDS011;45224;50.904;6.038;2023-04-24T06:55:26;11.90;;;5.30;;
59418;SDS011;45224;50.904;6.038;2023-04-24T06:56:56;11.63;;;5.20;;
59418;SDS011;45224;50.904;6.038;2023-04-24T06:58:27;13.30;;;5.60;;
59418;SDS011;45224;50.904;6.038;2023-04-24T06:59:58;13.73;;;6.27;;
59418;SDS011;45224;50.904;6.038;2023-04-24T07:01:28;13.55;;;5.80;;
59418;SDS011;45224;50.904;6.038;2023-04-24T07:02:59;13.30;;;4.93;;
59418;SDS011;45224;50.904;6.038;2023-04-24T07:04:30;10.02;;;4.60;;
59418;SDS011;45224;50.904;6.038;2023-04-24T07:06:00;9.35;;;5.05;;
59418;SDS011;45224;50.904;6.038;2023-04-24T07:07:31;13.77;;;5.60;;
59418;SDS011;45224;50.904;6.038;2023-04-24T07:09:02;13.87;;;6.50;;
59418;SDS011;45224;50.904;6.038;2023-04-24T07:10:33;16.92;;;6.18;;
59418;SDS011;45224;50.904;6.038;2023-04-24T07:12:05;15.80;;;6.68;;
59418;SDS011;45224;50.904;6.038;2023-04-24T07:13:36;12.77;;;6.50;;
59418;SDS011;45224;50.904;6.038;2023-04-24T07:15:06;11.13;;;6.10;;
59418;SDS011;45224;50.904;6.038;2023-04-24T07:16:38;15.35;;;6.75;;
59418;SDS011;45224;50.904;6.038;2023-04-24T07:18:09;15.52;;;6.35;;
59418;SDS011;45224;50.904;6.038;2023-04-24T07:19:39;16.33;;;7.60;;
59418;SDS011;45224;50.904;6.038;2023-04-24T07:21:10;13.93;;;6.70;;
59418;SDS011;45224;50.904;6.038;2023-04-24T07:22:41;15.23;;;7.47;;
59418;SDS011;45224;50.904;6.038;2023-04-24T07:24:12;17.00;;;7.20;;
59418;SDS011;45224;50.904;6.038;2023-04-24T07:25:42;11.35;;;6.47;;
59418;SDS011;45224;50.904;6.038;2023-04-24T07:27:14;10.85;;;6.05;;
59418;SDS011;45224;50.904;6.038;2023-04-24T07:28:45;14.02;;;6.90;;
59418;SDS011;45224;50.904;6.038;2023-04-24T07:30:15;17.20;;;6.30;;
59418;SDS011;45224;50.904;6.038;2023-04-24T07:31:46;12.80;;;6.38;;
59418;SDS011;45224;50.904;6.038;2023-04-24T07:33:17;17.52;;;7.65;;
59418;SDS011;45224;50.904;6.038;2023-04-24T07:34:47;16.27;;;7.13;;
59418;SDS011;45224;50.904;6.038;2023-04-24T07:36:17;17.60;;;7.03;;
59418;SDS011;45224;50.904;6.038;2023-04-24T07:37:48;15.95;;;7.45;;
59418;SDS011;45224;50.904;6.038;2023-04-24T07:39:19;13.63;;;6.67;;
59418;SDS011;45224;50.904;6.038;2023-04-24T07:40:50;18.35;;;7.75;;
59418;SDS011;45224;50.904;6.038;2023-04-24T07:42:20;15.70;;;6.90;;
59418;SDS011;45224;50.904;6.038;2023-04-24T07:43:51;16.33;;;7.30;;
59418;SDS011;45224;50.904;6.038;2023-04-24T07:45:23;14.57;;;7.00;;
59418;SDS011;45224;50.904;6.038;2023-04-24T07:46:56;14.68;;;6.70;;
59418;SDS011;45224;50.904;6.038;2023-04-24T07:48:26;17.50;;;7.60;;
59418;SDS011;45224;50.904;6.038;2023-04-24T07:49:57;14.60;;;6.90;;
59418;SDS011;45224;50.904;6.038;2023-04-24T07:51:27;21.83;;;7.80;;
59418;SDS011;45224;50.904;6.038;2023-04-24T07:52:58;17.73;;;7.50;;
59418;SDS011;45224;50.904;6.038;2023-04-24T07:54:28;17.20;;;7.93;;
59418;SDS011;45224;50.904;6.038;2023-04-24T07:55:59;15.48;;;8.05;;
59418;SDS011;45224;50.904;6.038;2023-04-24T07:57:30;18.88;;;7.60;;
59418;SDS011;45224;50.904;6.038;2023-04-24T07:59:00;17.30;;;8.20;;
59418;SDS011;45224;50.904;6.038;2023-04-24T08:00:31;20.30;;;8.60;;
59418;SDS011;45224;50.904;6.038;2023-04-24T08:02:01;19.33;;;8.07;;
59418;SDS011;45224;50.904;6.038;2023-04-24T08:03:32;15.60;;;8.50;;
59418;SDS011;45224;50.904;6.038;2023-04-24T08:05:02;20.30;;;8.50;;
59418;SDS011;45224;50.904;6.038;2023-04-24T08:06:33;22.92;;;8.50;;
59418;SDS011;45224;50.904;6.038;2023-04-24T08:08:04;17.10;;;7.87;;
59418;SDS011;45224;50.904;6.038;2023-04-24T08:09:34;16.47;;;7.80;;
59418;SDS011;45224;50.904;6.038;2023-04-24T08:11:05;16.00;;;8.57;;
59418;SDS011;45224;50.904;6.038;2023-04-24T08:12:35;17.80;;;8.33;;
59418;SDS011;45224;50.904;6.038;2023-04-24T08:14:06;20.73;;;8.43;;
59418;SDS011;45224;50.904;6.038;2023-04-24T08:15:36;16.47;;;8.53;;
59418;SDS011;45224;50.904;6.038;2023-04-24T08:17:07;17.73;;;7.93;;
59418;SDS011;45224;50.904;6.038;2023-04-24T08:18:37;16.83;;;8.83;;
59418;SDS011;45224;50.904;6.038;2023-04-24T08:20:08;17.20;;;7.97;;
59418;SDS011;45224;50.904;6.038;2023-04-24T08:21:43;18.15;;;8.30;;
59418;SDS011;45224;50.904;6.038;2023-04-24T08:23:13;15.80;;;8.77;;
59418;SDS011;45224;50.904;6.038;2023-04-24T08:24:44;18.60;;;7.90;;
59418;SDS011;45224;50.904;6.038;2023-04-24T08:26:15;14.97;;;7.97;;
59418;SDS011;45224;50.904;6.038;2023-04-24T08:27:45;13.90;;;7.63;;
59418;SDS011;45224;50.904;6.038;2023-04-24T08:29:16;18.97;;;9.10;;
59418;SDS011;45224;50.904;6.038;2023-04-24T08:30:46;18.17;;;8.47;;
59418;SDS011;45224;50.904;6.038;2023-04-24T08:32:17;17.58;;;7.88;;
59418;SDS011;45224;50.904;6.038;2023-04-24T08:33:48;14.83;;;6.97;;
59418;SDS011;45224;50.904;6.038;2023-04-24T08:35:18;18.50;;;8.13;;
59418;SDS011;45224;50.904;6.038;2023-04-24T08:36:49;14.30;;;7.45;;
59418;SDS011;45224;50.904;6.038;2023-04-24T08:38:20;14.40;;;7.50;;
59418;SDS011;45224;50.904;6.038;2023-04-24T08:39:50;14.73;;;7.00;;
59418;SDS011;45224;50.904;6.038;2023-04-24T08:41:21;12.25;;;7.20;;
59418;SDS011;45224;50.904;6.038;2023-04-24T08:42:54;13.10;;;6.43;;
59418;SDS011;45224;50.904;6.038;2023-04-24T08:44:26;13.55;;;6.18;;
59418;SDS011;45224;50.904;6.038;2023-04-24T08:45:57;12.53;;;6.00;;
59418;SDS011;45224;50.904;6.038;2023-04-24T08:47:27;17.27;;;6.30;;
59418;SDS011;45224;50.904;6.038;2023-04-24T08:49:00;11.73;;;6.35;;
59418;SDS011;45224;50.904;6.038;2023-04-24T08:50:31;11.95;;;6.32;;
59418;SDS011;45224;50.904;6.038;2023-04-24T08:52:02;14.48;;;6.30;;
59418;SDS011;45224;50.904;6.038;2023-04-24T08:53:32;14.55;;;6.72;;
59418;SDS011;45224;50.904;6.038;2023-04-24T08:55:04;11.93;;;6.57;;
59418;SDS011;45224;50.904;6.038;2023-04-24T08:56:36;15.93;;;6.55;;
59418;SDS011;45224;50.904;6.038;2023-04-24T08:58:10;14.35;;;5.90;;
59418;SDS011;45224;50.904;6.038;2023-04-24T08:59:40;10.45;;;5.75;;
59418;SDS011;45224;50.904;6.038;2023-04-24T09:01:12;10.52;;;6.00;;
59418;SDS011;45224;50.904;6.038;2023-04-24T09:02:43;11.45;;;5.95;;
59418;SDS011;45224;50.904;6.038;2023-04-24T09:04:15;11.02;;;6.40;;
59418;SDS011;45224;50.904;6.038;2023-04-24T09:05:48;15.63;;;6.32;;
59418;SDS011;45224;50.904;6.038;2023-04-24T09:07:20;13.13;;;5.75;;
59418;SDS011;45224;50.904;6.038;2023-04-24T09:08:54;9.32;;;6.00;;
59418;SDS011;45224;50.904;6.038;2023-04-24T09:10:26;11.40;;;5.50;;
59418;SDS011;45224;50.904;6.038;2023-04-24T09:11:58;9.63;;;5.38;;